sensor_id;sensor_type;location;lat;lon;timestamp;pressure;altitude;pressure_sealevel;temperature
24740;BMP280;45234;48.148;17.128;2022-12-07T00:01:08;99807.56;;;6.81
24740;BMP280;45234;48.148;17.128;2022-12-07T00:03:37;99812.19;;;6.85
24740;BMP280;45234;48.148;17.128;2022-12-07T00:06:05;99811.56;;;6.83
24740;BMP280;45234;48.148;17.128;2022-12-07T00:08:33;99806.44;;;6.83
24740;BMP280;45234;48.148;17.128;2022-12-07T00:11:05;99795.81;;;6.78
24740;BMP280;45234;48.148;17.128;2022-12-07T00:13:33;99808.03;;;6.84
24740;BMP280;45234;48.148;17.128;2022-12-07T00:16:02;99810.41;;;6.86
24740;BMP280;45234;48.148;17.128;2022-12-07T00:18:30;99806.84;;;6.87
24740;BMP280;45234;48.148;17.128;2022-12-07T00:21:02;99806.44;;;6.83
24740;BMP280;45234;48.148;17.128;2022-12-07T00:23:29;99805.25;;;6.86
24740;BMP280;45234;48.148;17.128;2022-12-07T00:25:55;99806.06;;;6.86
24740;BMP280;45234;48.148;17.128;2022-12-07T00:28:22;99804.09;;;6.88
24740;BMP280;45234;48.148;17.128;2022-12-07T00:30:49;99795.25;;;6.91
24740;BMP280;45234;48.148;17.128;2022-12-07T00:33:16;99798.31;;;6.94
24740;BMP280;45234;48.148;17.128;2022-12-07T00:35:42;99799.91;;;6.95
24740;BMP280;45234;48.148;17.128;2022-12-07T00:38:09;99797.16;;;6.97
24740;BMP280;45234;48.148;17.128;2022-12-07T00:40:36;99793.56;;;6.98
24740;BMP280;45234;48.148;17.128;2022-12-07T00:43:03;99791.81;;;6.98
24740;BMP280;45234;48.148;17.128;2022-12-07T00:45:29;99790.81;;;6.99
24740;BMP280;45234;48.148;17.128;2022-12-07T00:47:56;99794.38;;;6.98
24740;BMP280;45234;48.148;17.128;2022-12-07T00:50:23;99791.00;;;6.98
24740;BMP280;45234;48.148;17.128;2022-12-07T00:52:50;99787.63;;;6.97
24740;BMP280;45234;48.148;17.128;2022-12-07T00:55:16;99788.41;;;6.98
24740;BMP280;45234;48.148;17.128;2022-12-07T00:57:43;99790.03;;;6.99
24740;BMP280;45234;48.148;17.128;2022-12-07T01:00:10;99790.81;;;6.99
24740;BMP280;45234;48.148;17.128;2022-12-07T01:02:37;99795.19;;;6.99
24740;BMP280;45234;48.148;17.128;2022-12-07T01:05:04;99788.41;;;6.98
24740;BMP280;45234;48.148;17.128;2022-12-07T01:07:31;99796.94;;;6.98
24740;BMP280;45234;48.148;17.128;2022-12-07T01:09:58;99794.06;;;7.02
24740;BMP280;45234;48.148;17.128;2022-12-07T01:12:25;99794.88;;;7.02
24740;BMP280;45234;48.148;17.128;2022-12-07T01:14:52;99799.66;;;7.05
24740;BMP280;45234;48.148;17.128;2022-12-07T01:17:19;99801.28;;;7.06
24740;BMP280;45234;48.148;17.128;2022-12-07T01:19:45;99799.50;;;7.07
24740;BMP280;45234;48.148;17.128;2022-12-07T01:22:12;99794.97;;;7.09
24740;BMP280;45234;48.148;17.128;2022-12-07T01:24:39;99801.72;;;7.10
24740;BMP280;45234;48.148;17.128;2022-12-07T01:27:05;99807.34;;;7.13
24740;BMP280;45234;48.148;17.128;2022-12-07T01:29:32;99804.59;;;7.15
24740;BMP280;45234;48.148;17.128;2022-12-07T01:31:59;99796.59;;;7.10
24740;BMP280;45234;48.148;17.128;2022-12-07T01:34:26;99796.22;;;7.13
24740;BMP280;45234;48.148;17.128;2022-12-07T01:36:52;99796.88;;;7.15
24740;BMP280;45234;48.148;17.128;2022-12-07T01:39:19;99794.91;;;7.17
24740;BMP280;45234;48.148;17.128;2022-12-07T01:41:46;99788.78;;;7.18
24740;BMP280;45234;48.148;17.128;2022-12-07T01:44:29;99784.59;;;7.17
24740;BMP280;45234;48.148;17.128;2022-12-07T01:47:02;99781.69;;;7.20
24740;BMP280;45234;48.148;17.128;2022-12-07T01:49:45;99780.41;;;7.16
24740;BMP280;45234;48.148;17.128;2022-12-07T01:52:21;99771.72;;;7.17
24740;BMP280;45234;48.148;17.128;2022-12-07T01:54:54;99773.97;;;7.12
24740;BMP280;45234;48.148;17.128;2022-12-07T01:57:22;99775.63;;;7.13
24740;BMP280;45234;48.148;17.128;2022-12-07T01:59:50;99779.31;;;7.10
24740;BMP280;45234;48.148;17.128;2022-12-07T02:02:26;99772.94;;;7.06
24740;BMP280;45234;48.148;17.128;2022-12-07T02:04:56;99766.97;;;7.06
24740;BMP280;45234;48.148;17.128;2022-12-07T02:07:24;99757.63;;;7.05
24740;BMP280;45234;48.148;17.128;2022-12-07T02:09:55;99760.22;;;7.05
24740;BMP280;45234;48.148;17.128;2022-12-07T02:12:23;99761.19;;;7.04
24740;BMP280;45234;48.148;17.128;2022-12-07T02:15:11;99753.16;;;6.98
24740;BMP280;45234;48.148;17.128;2022-12-07T02:17:50;99760.63;;;6.93
24740;BMP280;45234;48.148;17.128;2022-12-07T02:20:33;99755.72;;;6.84
24740;BMP280;45234;48.148;17.128;2022-12-07T02:23:17;99764.84;;;6.86
24740;BMP280;45234;48.148;17.128;2022-12-07T02:31:19;99757.84;;;6.72
24740;BMP280;45234;48.148;17.128;2022-12-07T02:34:37;99749.66;;;6.68
24740;BMP280;45234;48.148;17.128;2022-12-07T02:36:43;99761.13;;;6.66
24740;BMP280;45234;48.148;17.128;2022-12-07T02:39:19;99764.84;;;6.63
24740;BMP280;45234;48.148;17.128;2022-12-07T02:42:01;99768.56;;;6.61
24740;BMP280;45234;48.148;17.128;2022-12-07T02:44:30;99761.63;;;6.61
24740;BMP280;45234;48.148;17.128;2022-12-07T02:47:04;99773.41;;;6.56
24740;BMP280;45234;48.148;17.128;2022-12-07T02:49:32;99768.13;;;6.49
24740;BMP280;45234;48.148;17.128;2022-12-07T02:52:00;99771.22;;;6.45
24740;BMP280;45234;48.148;17.128;2022-12-07T02:54:27;99763.50;;;6.36
24740;BMP280;45234;48.148;17.128;2022-12-07T03:16:14;99773.00;;;6.36
24740;BMP280;45234;48.148;17.128;2022-12-07T03:18:57;99765.69;;;6.48
24740;BMP280;45234;48.148;17.128;2022-12-07T03:21:34;99766.19;;;6.51
24740;BMP280;45234;48.148;17.128;2022-12-07T03:24:11;99766.66;;;6.55
24740;BMP280;45234;48.148;17.128;2022-12-07T03:26:43;99769.84;;;6.57
24740;BMP280;45234;48.148;17.128;2022-12-07T03:29:22;99765.97;;;6.61
24740;BMP280;45234;48.148;17.128;2022-12-07T03:32:01;99764.66;;;6.65
24740;BMP280;45234;48.148;17.128;2022-12-07T03:34:46;99770.94;;;6.71
24740;BMP280;45234;48.148;17.128;2022-12-07T03:37:19;99772.16;;;6.75
24740;BMP280;45234;48.148;17.128;2022-12-07T03:39:54;99768.94;;;6.50
24740;BMP280;45234;48.148;17.128;2022-12-07T03:42:24;99774.56;;;6.76
24740;BMP280;45234;48.148;17.128;2022-12-07T03:44:51;99774.09;;;6.81
24740;BMP280;45234;48.148;17.128;2022-12-07T03:47:34;99775.03;;;6.80
24740;BMP280;45234;48.148;17.128;2022-12-07T03:52:59;99768.75;;;6.82
24740;BMP280;45234;48.148;17.128;2022-12-07T03:55:32;99778.34;;;6.88
24740;BMP280;45234;48.148;17.128;2022-12-07T03:58:05;99783.19;;;6.91
24740;BMP280;45234;48.148;17.128;2022-12-07T04:00:33;99768.00;;;6.96
24740;BMP280;45234;48.148;17.128;2022-12-07T04:03:00;99778.91;;;6.98
24740;BMP280;45234;48.148;17.128;2022-12-07T04:05:28;99781.19;;;7.02
24740;BMP280;45234;48.148;17.128;2022-12-07T04:07:54;99781.63;;;7.05
24740;BMP280;45234;48.148;17.128;2022-12-07T04:10:21;99779.69;;;7.07
24740;BMP280;45234;48.148;17.128;2022-12-07T04:12:48;99778.72;;;7.08
24740;BMP280;45234;48.148;17.128;2022-12-07T04:15:15;99777.91;;;7.08
24740;BMP280;45234;48.148;17.128;2022-12-07T04:17:42;99773.91;;;7.05
24740;BMP280;45234;48.148;17.128;2022-12-07T04:20:09;99775.84;;;7.03
24740;BMP280;45234;48.148;17.128;2022-12-07T04:22:36;99770.19;;;7.08
24740;BMP280;45234;48.148;17.128;2022-12-07T04:25:03;99780.91;;;7.11
24740;BMP280;45234;48.148;17.128;2022-12-07T04:27:30;99783.16;;;7.14
24740;BMP280;45234;48.148;17.128;2022-12-07T04:29:57;99778.19;;;7.13
24740;BMP280;45234;48.148;17.128;2022-12-07T04:32:24;99782.19;;;7.15
24740;BMP280;45234;48.148;17.128;2022-12-07T04:34:51;99777.78;;;7.01
24740;BMP280;45234;48.148;17.128;2022-12-07T04:37:22;99775.75;;;6.96
24740;BMP280;45234;48.148;17.128;2022-12-07T04:39:48;99781.88;;;6.95
24740;BMP280;45234;48.148;17.128;2022-12-07T04:42:15;99777.50;;;6.96
24740;BMP280;45234;48.148;17.128;2022-12-07T04:45:00;99784.44;;;6.95
24740;BMP280;45234;48.148;17.128;2022-12-07T04:47:46;99783.09;;;6.99
24740;BMP280;45234;48.148;17.128;2022-12-07T04:50:31;99782.13;;;7.00
24740;BMP280;45234;48.148;17.128;2022-12-07T04:53:16;99789.22;;;6.98
24740;BMP280;45234;48.148;17.128;2022-12-07T04:55:44;99787.28;;;7.00
24740;BMP280;45234;48.148;17.128;2022-12-07T04:58:11;99795.16;;;7.07
24740;BMP280;45234;48.148;17.128;2022-12-07T05:00:38;99787.03;;;7.10
24740;BMP280;45234;48.148;17.128;2022-12-07T05:03:07;99782.09;;;7.09
24740;BMP280;45234;48.148;17.128;2022-12-07T05:05:34;99790.91;;;7.14
24740;BMP280;45234;48.148;17.128;2022-12-07T05:08:00;99790.72;;;7.16
24740;BMP280;45234;48.148;17.128;2022-12-07T05:10:27;99793.00;;;7.11
24740;BMP280;45234;48.148;17.128;2022-12-07T05:12:54;99792.03;;;7.12
24740;BMP280;45234;48.148;17.128;2022-12-07T05:15:21;99790.63;;;7.09
24740;BMP280;45234;48.148;17.128;2022-12-07T05:17:47;99788.22;;;7.08
24740;BMP280;45234;48.148;17.128;2022-12-07T05:20:14;99792.56;;;7.07
24740;BMP280;45234;48.148;17.128;2022-12-07T05:22:42;99789.19;;;7.07
24740;BMP280;45234;48.148;17.128;2022-12-07T05:25:09;99793.38;;;7.08
24740;BMP280;45234;48.148;17.128;2022-12-07T05:27:36;99792.91;;;7.04
24740;BMP280;45234;48.148;17.128;2022-12-07T05:30:03;99793.09;;;7.03
24740;BMP280;45234;48.148;17.128;2022-12-07T05:32:31;99804.03;;;7.05
24740;BMP280;45234;48.148;17.128;2022-12-07T05:34:57;99793.72;;;7.05
24740;BMP280;45234;48.148;17.128;2022-12-07T05:37:24;99784.38;;;7.04
24740;BMP280;45234;48.148;17.128;2022-12-07T05:39:51;99792.56;;;7.07
24740;BMP280;45234;48.148;17.128;2022-12-07T05:42:18;99788.22;;;7.08
24740;BMP280;45234;48.148;17.128;2022-12-07T05:44:45;99798.34;;;7.09
24740;BMP280;45234;48.148;17.128;2022-12-07T05:47:14;99795.31;;;7.06
24740;BMP280;45234;48.148;17.128;2022-12-07T05:49:41;99794.19;;;7.08
24740;BMP280;45234;48.148;17.128;2022-12-07T05:52:09;99799.34;;;7.08
24740;BMP280;45234;48.148;17.128;2022-12-07T05:54:36;99793.38;;;7.08
24740;BMP280;45234;48.148;17.128;2022-12-07T05:57:03;99789.81;;;7.09
24740;BMP280;45234;48.148;17.128;2022-12-07T05:59:29;99791.59;;;7.08
24740;BMP280;45234;48.148;17.128;2022-12-07T06:02:08;99794.97;;;7.09
24740;BMP280;45234;48.148;17.128;2022-12-07T06:04:38;99796.28;;;7.05
24740;BMP280;45234;48.148;17.128;2022-12-07T06:07:06;99796.47;;;7.03
24740;BMP280;45234;48.148;17.128;2022-12-07T06:09:33;99795.00;;;7.00
24740;BMP280;45234;48.148;17.128;2022-12-07T06:12:00;99797.28;;;7.04
24740;BMP280;45234;48.148;17.128;2022-12-07T06:15:05;99801.44;;;7.05
24740;BMP280;45234;48.148;17.128;2022-12-07T06:17:32;99802.25;;;7.05
24740;BMP280;45234;48.148;17.128;2022-12-07T06:19:59;99809.19;;;7.05
24740;BMP280;45234;48.148;17.128;2022-12-07T06:22:26;99807.22;;;7.07
24740;BMP280;45234;48.148;17.128;2022-12-07T06:24:53;99803.69;;;7.08
24740;BMP280;45234;48.148;17.128;2022-12-07T06:27:20;99805.81;;;7.04
24740;BMP280;45234;48.148;17.128;2022-12-07T06:29:46;99805.00;;;7.04
24740;BMP280;45234;48.148;17.128;2022-12-07T06:32:13;99798.88;;;7.05
24740;BMP280;45234;48.148;17.128;2022-12-07T06:34:55;99804.03;;;7.05
24740;BMP280;45234;48.148;17.128;2022-12-07T06:37:22;99811.25;;;7.09
24740;BMP280;45234;48.148;17.128;2022-12-07T06:39:49;99805.63;;;7.06
24740;BMP280;45234;48.148;17.128;2022-12-07T06:42:15;99810.06;;;7.12
24740;BMP280;45234;48.148;17.128;2022-12-07T06:44:42;99814.09;;;7.14
24740;BMP280;45234;48.148;17.128;2022-12-07T06:47:09;99814.56;;;7.18
24740;BMP280;45234;48.148;17.128;2022-12-07T06:49:56;99810.03;;;7.20
24740;BMP280;45234;48.148;17.128;2022-12-07T06:52:22;99810.63;;;7.22
24740;BMP280;45234;48.148;17.128;2022-12-07T06:54:49;99817.06;;;7.26
24740;BMP280;45234;48.148;17.128;2022-12-07T06:57:17;99815.13;;;7.28
24740;BMP280;45234;48.148;17.128;2022-12-07T06:59:44;99818.94;;;7.32
24740;BMP280;45234;48.148;17.128;2022-12-07T07:02:10;99816.03;;;7.35
24740;BMP280;45234;48.148;17.128;2022-12-07T07:04:37;99813.28;;;7.37
24740;BMP280;45234;48.148;17.128;2022-12-07T07:07:04;99816.47;;;7.39
24740;BMP280;45234;48.148;17.128;2022-12-07T07:09:31;99811.78;;;7.42
24740;BMP280;45234;48.148;17.128;2022-12-07T07:11:58;99817.38;;;7.46
24740;BMP280;45234;48.148;17.128;2022-12-07T07:14:25;99811.47;;;7.45
24740;BMP280;45234;48.148;17.128;2022-12-07T07:16:51;99819.00;;;7.47
24740;BMP280;45234;48.148;17.128;2022-12-07T07:19:18;99827.53;;;7.47
24740;BMP280;45234;48.148;17.128;2022-12-07T07:21:45;99817.84;;;7.49
24740;BMP280;45234;48.148;17.128;2022-12-07T07:24:12;99821.22;;;7.50
24740;BMP280;45234;48.148;17.128;2022-12-07T07:26:39;99827.19;;;7.50
24740;BMP280;45234;48.148;17.128;2022-12-07T07:29:05;99824.25;;;7.53
24740;BMP280;45234;48.148;17.128;2022-12-07T07:31:32;99827.47;;;7.55
24740;BMP280;45234;48.148;17.128;2022-12-07T07:34:02;99824.69;;;7.57
24740;BMP280;45234;48.148;17.128;2022-12-07T07:36:28;99828.53;;;7.61
24740;BMP280;45234;48.148;17.128;2022-12-07T07:38:55;99835.13;;;7.63
24740;BMP280;45234;48.148;17.128;2022-12-07T07:41:22;99836.19;;;7.69
24740;BMP280;45234;48.148;17.128;2022-12-07T07:43:48;99833.44;;;7.71
24740;BMP280;45234;48.148;17.128;2022-12-07T07:46:18;99829.63;;;7.67
24740;BMP280;45234;48.148;17.128;2022-12-07T07:48:45;99837.00;;;7.70
24740;BMP280;45234;48.148;17.128;2022-12-07T07:51:12;99833.44;;;7.71
24740;BMP280;45234;48.148;17.128;2022-12-07T07:53:39;99845.97;;;7.74
24740;BMP280;45234;48.148;17.128;2022-12-07T07:56:06;99838.72;;;7.77
24740;BMP280;45234;48.148;17.128;2022-12-07T07:58:32;99838.16;;;7.82
24740;BMP280;45234;48.148;17.128;2022-12-07T08:01:09;99835.66;;;7.74
24740;BMP280;45234;48.148;17.128;2022-12-07T08:03:36;99833.38;;;7.79
24740;BMP280;45234;48.148;17.128;2022-12-07T08:06:03;99819.47;;;7.80
24740;BMP280;45234;48.148;17.128;2022-12-07T08:08:30;99829.44;;;7.83
24740;BMP280;45234;48.148;17.128;2022-12-07T08:10:57;99843.63;;;7.87
24740;BMP280;45234;48.148;17.128;2022-12-07T08:13:28;99841.91;;;7.94
24740;BMP280;45234;48.148;17.128;2022-12-07T08:15:57;99841.81;;;8.02
24740;BMP280;45234;48.148;17.128;2022-12-07T08:18:24;99838.09;;;8.05
24740;BMP280;45234;48.148;17.128;2022-12-07T08:20:51;99840.78;;;8.11
24740;BMP280;45234;48.148;17.128;2022-12-07T08:23:18;99848.16;;;8.14
24740;BMP280;45234;48.148;17.128;2022-12-07T08:25:44;99847.78;;;8.17
24740;BMP280;45234;48.148;17.128;2022-12-07T08:28:11;99853.44;;;8.21
24740;BMP280;45234;48.148;17.128;2022-12-07T08:30:38;99857.63;;;8.22
24740;BMP280;45234;48.148;17.128;2022-12-07T08:33:05;99856.00;;;8.21
24740;BMP280;45234;48.148;17.128;2022-12-07T08:35:33;99856.50;;;8.16
24740;BMP280;45234;48.148;17.128;2022-12-07T08:38:01;99858.91;;;8.03
24740;BMP280;45234;48.148;17.128;2022-12-07T08:40:29;99851.16;;;8.03
24740;BMP280;45234;48.148;17.128;2022-12-07T08:42:59;99854.84;;;8.09
24740;BMP280;45234;48.148;17.128;2022-12-07T08:45:26;99850.72;;;8.14
24740;BMP280;45234;48.148;17.128;2022-12-07T08:47:59;99846.56;;;8.13
24740;BMP280;45234;48.148;17.128;2022-12-07T08:50:29;99826.34;;;8.17
24740;BMP280;45234;48.148;17.128;2022-12-07T08:52:57;99831.97;;;8.20
24740;BMP280;45234;48.148;17.128;2022-12-07T08:55:25;99838.34;;;8.24
24740;BMP280;45234;48.148;17.128;2022-12-07T08:57:54;99841.72;;;8.25
24740;BMP280;45234;48.148;17.128;2022-12-07T09:00:22;99848.69;;;8.24
24740;BMP280;45234;48.148;17.128;2022-12-07T09:02:57;99852.63;;;8.20
24740;BMP280;45234;48.148;17.128;2022-12-07T09:05:25;99857.78;;;8.20
24740;BMP280;45234;48.148;17.128;2022-12-07T09:07:56;99855.91;;;8.14
24740;BMP280;45234;48.148;17.128;2022-12-07T09:10:28;99860.59;;;8.25
24740;BMP280;45234;48.148;17.128;2022-12-07T09:12:55;99858.56;;;8.36
24740;BMP280;45234;48.148;17.128;2022-12-07T09:15:22;99858.47;;;8.44
24740;BMP280;45234;48.148;17.128;2022-12-07T09:17:49;99848.75;;;8.46
24740;BMP280;45234;48.148;17.128;2022-12-07T09:20:16;99847.88;;;8.39
24740;BMP280;45234;48.148;17.128;2022-12-07T09:22:43;99849.03;;;8.36
24740;BMP280;45234;48.148;17.128;2022-12-07T09:25:09;99848.84;;;8.38
24740;BMP280;45234;48.148;17.128;2022-12-07T09:27:36;99848.06;;;8.37
24740;BMP280;45234;48.148;17.128;2022-12-07T09:30:06;99852.41;;;8.37
24740;BMP280;45234;48.148;17.128;2022-12-07T09:32:33;99846.91;;;8.40
24740;BMP280;45234;48.148;17.128;2022-12-07T09:35:00;99842.56;;;8.40
24740;BMP280;45234;48.148;17.128;2022-12-07T09:37:29;99836.50;;;8.33
24740;BMP280;45234;48.148;17.128;2022-12-07T09:39:55;99834.09;;;8.32
24740;BMP280;45234;48.148;17.128;2022-12-07T09:42:38;99827.34;;;8.31
24740;BMP280;45234;48.148;17.128;2022-12-07T09:45:17;99827.47;;;8.44
24740;BMP280;45234;48.148;17.128;2022-12-07T09:47:46;99814.47;;;8.52
24740;BMP280;45234;48.148;17.128;2022-12-07T09:50:19;99810.81;;;8.61
24740;BMP280;45234;48.148;17.128;2022-12-07T09:52:48;99806.66;;;8.67
24740;BMP280;45234;48.148;17.128;2022-12-07T09:55:35;99805.13;;;8.51
24740;BMP280;45234;48.148;17.128;2022-12-07T09:58:03;99802.88;;;8.63
24740;BMP280;45234;48.148;17.128;2022-12-07T10:00:30;99800.88;;;8.65
24740;BMP280;45234;48.148;17.128;2022-12-07T10:02:59;99803.97;;;8.75
24740;BMP280;45234;48.148;17.128;2022-12-07T10:05:34;99802.56;;;8.93
24740;BMP280;45234;48.148;17.128;2022-12-07T10:08:04;99797.69;;;9.33
24740;BMP280;45234;48.148;17.128;2022-12-07T10:10:33;99791.00;;;9.67
24740;BMP280;45234;48.148;17.128;2022-12-07T10:13:08;99801.06;;;9.89
24740;BMP280;45234;48.148;17.128;2022-12-07T10:15:55;99807.84;;;9.97
24740;BMP280;45234;48.148;17.128;2022-12-07T10:18:41;99804.91;;;10.07
24740;BMP280;45234;48.148;17.128;2022-12-07T10:21:13;99795.78;;;10.11
24740;BMP280;45234;48.148;17.128;2022-12-07T10:26:58;99793.50;;;9.94
24740;BMP280;45234;48.148;17.128;2022-12-07T10:29:38;99784.41;;;10.12
24740;BMP280;45234;48.148;17.128;2022-12-07T10:34:44;99777.94;;;10.49
24740;BMP280;45234;48.148;17.128;2022-12-07T10:37:19;99779.38;;;10.51
24740;BMP280;45234;48.148;17.128;2022-12-07T10:39:52;99777.06;;;10.15
24740;BMP280;45234;48.148;17.128;2022-12-07T10:42:27;99786.13;;;9.91
24740;BMP280;45234;48.148;17.128;2022-12-07T10:45:16;99784.66;;;9.76
24740;BMP280;45234;48.148;17.128;2022-12-07T10:48:10;99786.75;;;9.59
24740;BMP280;45234;48.148;17.128;2022-12-07T10:50:47;99794.25;;;9.47
24740;BMP280;45234;48.148;17.128;2022-12-07T10:53:28;99794.75;;;9.36
24740;BMP280;45234;48.148;17.128;2022-12-07T11:09:40;99774.34;;;9.48
24740;BMP280;45234;48.148;17.128;2022-12-07T11:12:54;99756.97;;;9.35
24740;BMP280;45234;48.148;17.128;2022-12-07T11:18:45;99761.22;;;9.49
24740;BMP280;45234;48.148;17.128;2022-12-07T11:21:43;99769.97;;;9.48
24740;BMP280;45234;48.148;17.128;2022-12-07T11:24:20;99758.50;;;9.57
24740;BMP280;45234;48.148;17.128;2022-12-07T11:35:08;99756.44;;;9.46
24740;BMP280;45234;48.148;17.128;2022-12-07T11:37:38;99755.72;;;9.31
24740;BMP280;45234;48.148;17.128;2022-12-07T11:40:28;99747.03;;;9.11
24740;BMP280;45234;48.148;17.128;2022-12-07T11:43:19;99743.16;;;9.00
24740;BMP280;45234;48.148;17.128;2022-12-07T11:46:06;99753.31;;;9.02
24740;BMP280;45234;48.148;17.128;2022-12-07T11:48:40;99751.72;;;9.01
24740;BMP280;45234;48.148;17.128;2022-12-07T11:51:13;99753.69;;;8.99
24740;BMP280;45234;48.148;17.128;2022-12-07T11:54:39;99746.44;;;8.87
24740;BMP280;45234;48.148;17.128;2022-12-07T11:57:02;99742.88;;;8.88
24740;BMP280;45234;48.148;17.128;2022-12-07T11:59:38;99740.53;;;8.93
24740;BMP280;45234;48.148;17.128;2022-12-07T12:04:44;99749.03;;;8.87
24740;BMP280;45234;48.148;17.128;2022-12-07T12:07:17;99755.44;;;8.70
24740;BMP280;45234;48.148;17.128;2022-12-07T12:10:18;99757.19;;;8.63
24740;BMP280;45234;48.148;17.128;2022-12-07T12:18:46;99757.66;;;8.52
24740;BMP280;45234;48.148;17.128;2022-12-07T12:21:26;99759.13;;;8.40
24740;BMP280;45234;48.148;17.128;2022-12-07T12:24:18;99736.97;;;8.31
24740;BMP280;45234;48.148;17.128;2022-12-07T12:27:02;99755.72;;;8.24
24740;BMP280;45234;48.148;17.128;2022-12-07T12:29:37;99750.50;;;8.33
24740;BMP280;45234;48.148;17.128;2022-12-07T12:32:14;99749.13;;;8.37
24740;BMP280;45234;48.148;17.128;2022-12-07T12:34:59;99748.81;;;8.46
24740;BMP280;45234;48.148;17.128;2022-12-07T12:42:53;99747.31;;;8.52
24740;BMP280;45234;48.148;17.128;2022-12-07T12:45:24;99743.97;;;8.58
24740;BMP280;45234;48.148;17.128;2022-12-07T12:48:02;99751.00;;;8.64
24740;BMP280;45234;48.148;17.128;2022-12-07T12:50:38;99746.72;;;8.71
24740;BMP280;45234;48.148;17.128;2022-12-07T12:53:12;99757.66;;;8.73
24740;BMP280;45234;48.148;17.128;2022-12-07T12:58:38;99754.47;;;8.71
24740;BMP280;45234;48.148;17.128;2022-12-07T13:04:03;99754.59;;;8.48
24740;BMP280;45234;48.148;17.128;2022-12-07T13:06:42;99744.72;;;8.31
24740;BMP280;45234;48.148;17.128;2022-12-07T13:09:23;99755.16;;;8.08
24740;BMP280;45234;48.148;17.128;2022-12-07T13:12:01;99758.66;;;8.00
24740;BMP280;45234;48.148;17.128;2022-12-07T13:17:10;99754.19;;;7.94
24740;BMP280;45234;48.148;17.128;2022-12-07T13:25:05;99761.75;;;7.81
24740;BMP280;45234;48.148;17.128;2022-12-07T13:27:37;99753.41;;;7.79
24740;BMP280;45234;48.148;17.128;2022-12-07T13:30:13;99751.47;;;7.66
24740;BMP280;45234;48.148;17.128;2022-12-07T13:32:40;99753.56;;;7.62
24740;BMP280;45234;48.148;17.128;2022-12-07T13:37:57;99760.44;;;7.55
24740;BMP280;45234;48.148;17.128;2022-12-07T13:40:24;99760.75;;;7.52
24740;BMP280;45234;48.148;17.128;2022-12-07T13:43:15;99758.59;;;7.41
24740;BMP280;45234;48.148;17.128;2022-12-07T13:45:42;99759.50;;;7.48
24740;BMP280;45234;48.148;17.128;2022-12-07T13:48:31;99757.00;;;7.40
24740;BMP280;45234;48.148;17.128;2022-12-07T13:51:03;99755.06;;;7.42
24740;BMP280;45234;48.148;17.128;2022-12-07T13:53:30;99758.28;;;7.44
24740;BMP280;45234;48.148;17.128;2022-12-07T13:55:59;99755.50;;;7.46
24740;BMP280;45234;48.148;17.128;2022-12-07T13:58:29;99754.06;;;7.43
24740;BMP280;45234;48.148;17.128;2022-12-07T14:00:57;99753.13;;;7.44
24740;BMP280;45234;48.148;17.128;2022-12-07T14:03:31;99755.84;;;7.43
24740;BMP280;45234;48.148;17.128;2022-12-07T14:06:27;99758.50;;;7.35
24740;BMP280;45234;48.148;17.128;2022-12-07T14:11:47;99761.19;;;7.41
24740;BMP280;45234;48.148;17.128;2022-12-07T14:14:17;99752.19;;;7.37
24740;BMP280;45234;48.148;17.128;2022-12-07T14:17:00;99753.69;;;7.31
24740;BMP280;45234;48.148;17.128;2022-12-07T14:19:44;99756.81;;;7.27
24740;BMP280;45234;48.148;17.128;2022-12-07T14:22:28;99759.84;;;7.30
24740;BMP280;45234;48.148;17.128;2022-12-07T14:28:03;99748.00;;;7.21
24740;BMP280;45234;48.148;17.128;2022-12-07T14:30:32;99763.66;;;7.35
24740;BMP280;45234;48.148;17.128;2022-12-07T14:33:01;99749.81;;;7.36
24740;BMP280;45234;48.148;17.128;2022-12-07T14:35:29;99754.84;;;7.29
24740;BMP280;45234;48.148;17.128;2022-12-07T14:37:56;99760.81;;;7.29
24740;BMP280;45234;48.148;17.128;2022-12-07T14:40:26;99763.91;;;7.25
24740;BMP280;45234;48.148;17.128;2022-12-07T14:43:06;99772.53;;;7.17
24740;BMP280;45234;48.148;17.128;2022-12-07T14:45:35;99769.94;;;7.17
24740;BMP280;45234;48.148;17.128;2022-12-07T14:48:02;99769.66;;;7.12
24740;BMP280;45234;48.148;17.128;2022-12-07T14:50:51;99771.31;;;7.05
24740;BMP280;45234;48.148;17.128;2022-12-07T14:53:48;99771.00;;;7.00
24740;BMP280;45234;48.148;17.128;2022-12-07T14:56:24;99772.97;;;6.75
24740;BMP280;45234;48.148;17.128;2022-12-07T14:58:51;99774.47;;;6.92
24740;BMP280;45234;48.148;17.128;2022-12-07T15:01:18;99766.94;;;6.91
24740;BMP280;45234;48.148;17.128;2022-12-07T15:03:45;99767.25;;;6.88
24740;BMP280;45234;48.148;17.128;2022-12-07T15:06:15;99769.56;;;6.83
24740;BMP280;45234;48.148;17.128;2022-12-07T15:08:42;99773.91;;;6.82
24740;BMP280;45234;48.148;17.128;2022-12-07T15:11:19;99778.75;;;6.77
24740;BMP280;45234;48.148;17.128;2022-12-07T15:13:46;99774.22;;;6.79
24740;BMP280;45234;48.148;17.128;2022-12-07T15:16:31;99782.28;;;6.76
24740;BMP280;45234;48.148;17.128;2022-12-07T15:19:21;99784.88;;;6.76
24740;BMP280;45234;48.148;17.128;2022-12-07T15:21:56;99780.53;;;6.77
24740;BMP280;45234;48.148;17.128;2022-12-07T15:24:24;99783.28;;;6.75
24740;BMP280;45234;48.148;17.128;2022-12-07T15:26:52;99781.22;;;6.71
24740;BMP280;45234;48.148;17.128;2022-12-07T15:29:19;99777.19;;;6.68
24740;BMP280;45234;48.148;17.128;2022-12-07T15:31:53;99781.88;;;6.64
24740;BMP280;45234;48.148;17.128;2022-12-07T15:34:24;99777.25;;;6.60
24740;BMP280;45234;48.148;17.128;2022-12-07T15:36:52;99778.56;;;6.56
24740;BMP280;45234;48.148;17.128;2022-12-07T15:39:19;99773.75;;;6.53
24740;BMP280;45234;48.148;17.128;2022-12-07T15:41:45;99773.13;;;6.51
24740;BMP280;45234;48.148;17.128;2022-12-07T15:44:13;99776.97;;;6.47
24740;BMP280;45234;48.148;17.128;2022-12-07T15:46:59;99779.09;;;6.43
24740;BMP280;45234;48.148;17.128;2022-12-07T15:49:27;99779.53;;;6.47
24740;BMP280;45234;48.148;17.128;2022-12-07T15:51:54;99780.22;;;6.49
24740;BMP280;45234;48.148;17.128;2022-12-07T15:54:23;99787.59;;;6.52
24740;BMP280;45234;48.148;17.128;2022-12-07T15:56:50;99788.53;;;6.59
24740;BMP280;45234;48.148;17.128;2022-12-07T15:59:17;99772.72;;;6.62
24740;BMP280;45234;48.148;17.128;2022-12-07T16:01:45;99774.78;;;6.66
24740;BMP280;45234;48.148;17.128;2022-12-07T16:04:13;99774.63;;;6.68
24740;BMP280;45234;48.148;17.128;2022-12-07T16:06:40;99775.44;;;6.68
24740;BMP280;45234;48.148;17.128;2022-12-07T16:09:07;99776.22;;;6.69